createdAt,value
2022-08-05T00:01:27.887Z,5.00
2022-08-05T00:06:33.259Z,4.37
2022-08-05T00:11:35.171Z,4.50
2022-08-05T00:16:53.385Z,4.50
2022-08-05T00:21:54.066Z,5.10
2022-08-05T00:26:53.172Z,4.53
2022-08-05T00:32:10.092Z,4.87
2022-08-05T00:37:14.404Z,4.90
2022-08-05T00:42:12.459Z,5.60
2022-08-05T00:47:49.174Z,5.30
2022-08-05T00:52:49.793Z,5.50
2022-08-05T00:57:58.389Z,4.87
2022-08-05T01:02:57.681Z,4.60
2022-08-05T01:08:41.885Z,6.97
2022-08-05T01:13:22.448Z,9.70
2022-08-05T01:18:30.837Z,9.67
2022-08-05T01:23:44.839Z,8.37
2022-08-05T01:28:57.370Z,8.50
2022-08-05T01:34:05.673Z,7.80
2022-08-05T01:39:06.535Z,7.23
2022-08-05T01:44:11.339Z,7.40
2022-08-05T01:49:23.800Z,7.60
2022-08-05T01:54:27.216Z,6.90
2022-08-05T01:59:28.883Z,6.70
2022-08-05T02:04:30.610Z,7.60
2022-08-05T02:09:29.053Z,7.23
2022-08-05T02:14:33.236Z,7.57
2022-08-05T02:19:34.719Z,6.30
2022-08-05T02:24:36.977Z,6.00
2022-08-05T02:29:58.093Z,5.60
2022-08-05T02:34:57.929Z,5.63
2022-08-05T02:39:58.973Z,4.70
2022-08-05T02:44:59.831Z,5.60
2022-08-05T02:50:00.528Z,5.10
2022-08-05T02:55:01.783Z,5.33
2022-08-05T03:00:06.500Z,4.87
2022-08-05T03:05:07.547Z,5.70
2022-08-05T03:10:05.951Z,4.43
2022-08-05T03:15:07.523Z,4.20
2022-08-05T03:20:08.466Z,4.97
2022-08-05T03:25:32.553Z,3.87
2022-08-05T03:30:34.102Z,4.37
2022-08-05T03:35:33.743Z,4.37
2022-08-05T03:40:41.346Z,4.53
2022-08-05T03:45:57.681Z,4.30
2022-08-05T03:52:35.455Z,4.20
2022-08-05T03:56:31.912Z,4.27
2022-08-05T04:01:38.658Z,3.80
2022-08-05T04:06:37.894Z,4.43
2022-08-05T04:11:47.463Z,4.80
2022-08-05T04:16:50.523Z,4.93
2022-08-05T04:22:09.849Z,4.83
2022-08-05T04:27:09.126Z,4.60
2022-08-05T04:32:09.192Z,4.70
2022-08-05T04:37:07.225Z,5.17
2022-08-05T04:42:06.050Z,8.40
2022-08-05T04:47:09.024Z,4.93
2022-08-05T04:52:09.733Z,4.00
2022-08-05T04:57:07.722Z,4.53
2022-08-05T05:02:36.742Z,4.43
2022-08-05T05:07:29.430Z,4.53
2022-08-05T05:12:30.187Z,4.90
2022-08-05T05:17:55.719Z,4.73
2022-08-05T05:22:47.747Z,4.80
2022-08-05T05:27:53.651Z,4.30
2022-08-05T05:32:53.775Z,4.57
2022-08-05T05:37:59.432Z,4.63
2022-08-05T05:42:58.930Z,4.63
2022-08-05T05:48:06.371Z,4.60
2022-08-05T05:53:21.350Z,4.60
2022-08-05T05:58:20.717Z,4.43
2022-08-05T06:03:53.980Z,4.70
2022-08-05T06:08:49.192Z,4.87
2022-08-05T06:13:50.263Z,4.57
2022-08-05T06:18:53.588Z,3.80
2022-08-05T06:23:53.063Z,3.93
2022-08-05T06:28:51.045Z,3.43
2022-08-05T06:34:07.280Z,3.83
2022-08-05T06:39:08.680Z,3.40
2022-08-05T06:44:06.913Z,3.30
2022-08-05T06:49:05.899Z,3.33
2022-08-05T06:54:06.405Z,3.30
2022-08-05T06:59:09.872Z,3.13
2022-08-05T07:04:09.886Z,3.30
2022-08-05T07:09:07.952Z,3.40
2022-08-05T07:14:30.373Z,3.00
2022-08-05T07:24:53.575Z,3.73
2022-08-05T07:30:24.441Z,3.37
2022-08-05T07:36:04.783Z,3.50
2022-08-05T07:40:33.016Z,2.80
2022-08-05T07:45:57.201Z,3.17
2022-08-05T07:50:51.488Z,3.10
2022-08-05T07:56:05.380Z,3.57
2022-08-05T08:01:12.251Z,2.93
2022-08-05T08:06:10.512Z,4.00
2022-08-05T08:11:09.146Z,3.70
2022-08-05T08:16:50.351Z,3.30
2022-08-05T08:21:35.725Z,3.43
2022-08-05T08:26:34.555Z,3.23
2022-08-05T08:31:33.848Z,2.60
2022-08-05T08:36:50.174Z,3.10
2022-08-05T08:41:59.894Z,2.90
2022-08-05T08:47:00.916Z,2.87
2022-08-05T08:52:13.468Z,3.27
2022-08-05T08:57:13.339Z,3.50
2022-08-05T09:02:14.457Z,3.33
2022-08-05T09:07:19.589Z,3.30
2022-08-05T09:12:27.296Z,2.90
2022-08-05T09:17:42.386Z,3.03
2022-08-05T09:23:18.900Z,3.07
2022-08-05T09:28:21.155Z,2.70
2022-08-05T09:33:20.872Z,2.43
2022-08-05T09:38:29.365Z,3.20
2022-08-05T09:43:40.448Z,2.50
2022-08-05T09:48:41.356Z,2.67
2022-08-05T09:53:59.201Z,2.87
2022-08-05T09:59:00.759Z,2.90
2022-08-05T10:04:10.462Z,2.40
2022-08-05T10:09:25.057Z,2.70
2022-08-05T10:14:30.235Z,2.60
2022-08-05T10:20:04.338Z,2.40
2022-08-05T10:24:50.720Z,2.73
2022-08-05T10:30:41.364Z,2.57
2022-08-05T10:35:10.241Z,3.07
2022-08-05T10:40:18.408Z,3.30
2022-08-05T10:45:23.698Z,2.93
2022-08-05T10:50:59.925Z,3.40
2022-08-05T10:56:21.042Z,3.37
2022-08-05T11:01:44.704Z,3.17
2022-08-05T11:07:08.238Z,3.70
2022-08-05T11:12:06.923Z,3.63
2022-08-05T11:17:57.253Z,1.93
2022-08-05T11:22:53.980Z,2.33
2022-08-05T11:28:00.793Z,2.23
2022-08-05T11:33:43.869Z,2.50
2022-08-05T11:38:57.817Z,2.43
2022-08-05T11:44:04.602Z,2.93
2022-08-05T11:49:08.036Z,5.47
2022-08-05T11:54:10.153Z,5.63
2022-08-05T11:59:15.728Z,4.80
2022-08-05T12:04:19.325Z,3.77
2022-08-05T12:09:53.503Z,3.50
2022-08-05T12:14:47.329Z,5.57
2022-08-05T12:20:27.889Z,5.60
2022-08-05T12:25:32.272Z,3.80
2022-08-05T12:30:38.991Z,3.70
2022-08-05T12:35:44.036Z,3.00
2022-08-05T12:40:47.515Z,2.40
2022-08-05T12:45:52.589Z,1.60
2022-08-05T12:52:11.131Z,2.13
2022-08-05T12:56:35.357Z,1.83
2022-08-05T13:02:00.105Z,2.07
2022-08-05T13:06:58.962Z,2.33
2022-08-05T13:12:05.844Z,2.57
2022-08-05T13:17:11.094Z,2.50
2022-08-05T13:22:12.090Z,2.50
2022-08-05T13:27:17.126Z,2.90
2022-08-05T13:32:35.130Z,2.40
2022-08-05T13:37:37.644Z,2.30
2022-08-05T13:42:37.085Z,3.10
2022-08-05T13:48:09.422Z,2.97
2022-08-05T13:52:55.498Z,3.13
2022-08-05T13:57:54.890Z,3.40
2022-08-05T14:02:52.916Z,2.90
2022-08-05T14:08:00.479Z,2.70
2022-08-05T14:13:07.686Z,2.70
2022-08-05T14:18:06.402Z,2.80
2022-08-05T14:23:19.188Z,3.17
2022-08-05T14:28:26.871Z,2.33
2022-08-05T14:33:25.498Z,2.30
2022-08-05T14:38:32.816Z,2.67
2022-08-05T14:44:02.271Z,3.00
2022-08-05T14:48:53.563Z,3.87
2022-08-05T14:54:27.428Z,3.97
2022-08-05T14:59:12.747Z,2.80
2022-08-05T15:04:11.836Z,3.03
2022-08-05T15:09:09.952Z,3.10
2022-08-05T15:14:08.581Z,3.63
2022-08-05T15:19:07.983Z,3.73
2022-08-05T15:24:21.376Z,3.90
2022-08-05T15:29:20.419Z,4.10
2022-08-05T15:34:32.166Z,3.50
2022-08-05T15:41:04.163Z,4.10
2022-08-05T15:44:49.462Z,3.60
2022-08-05T15:49:56.878Z,4.17
2022-08-05T15:54:57.326Z,4.00
2022-08-05T15:59:57.637Z,3.97
2022-08-05T16:04:57.291Z,3.87
2022-08-05T16:09:55.353Z,3.27
2022-08-05T16:14:53.505Z,4.30
2022-08-05T16:20:11.275Z,4.07
2022-08-05T16:25:11.282Z,3.90
2022-08-05T16:30:25.944Z,3.43
2022-08-05T16:35:27.869Z,3.97
2022-08-05T16:40:29.069Z,5.37
2022-08-05T16:46:03.929Z,4.70
2022-08-05T16:50:45.823Z,4.47
2022-08-05T16:55:47.113Z,4.53
2022-08-05T17:00:45.856Z,4.20
2022-08-05T17:05:50.243Z,3.30
2022-08-05T17:10:53.555Z,3.20
2022-08-05T17:15:55.624Z,2.70
2022-08-05T17:21:05.782Z,2.50
2022-08-05T17:26:05.447Z,1.83
2022-08-05T17:31:08.421Z,1.73
2022-08-05T17:36:32.782Z,1.10
2022-08-05T17:42:17.891Z,1.30
2022-08-05T17:46:52.566Z,1.70
2022-08-05T17:51:52.114Z,1.00
2022-08-05T17:56:54.602Z,0.70
2022-08-05T18:01:52.622Z,0.90
2022-08-05T18:06:54.370Z,0.77
2022-08-05T18:11:59.949Z,1.00
2022-08-05T18:16:58.048Z,0.90
2022-08-05T18:22:08.736Z,0.87
2022-08-05T18:27:12.705Z,0.80
2022-08-05T18:32:16.703Z,0.60
2022-08-05T18:37:16.927Z,0.70
2022-08-05T18:42:34.080Z,0.80
2022-08-05T18:47:32.159Z,0.80
2022-08-05T18:52:35.762Z,0.70
2022-08-05T18:57:43.024Z,1.00
2022-08-05T19:02:48.360Z,1.10
2022-08-05T19:07:47.894Z,1.00
2022-08-05T19:12:48.316Z,0.70
2022-08-05T19:18:08.101Z,0.83
2022-08-05T19:23:08.028Z,1.03
2022-08-05T19:28:07.621Z,1.40
2022-08-05T19:33:08.852Z,1.03
2022-08-05T19:38:14.731Z,0.97
2022-08-05T19:44:04.654Z,1.43
2022-08-05T19:48:32.238Z,1.10
2022-08-05T19:54:04.588Z,1.47
2022-08-05T19:58:53.881Z,1.37
2022-08-05T20:03:52.452Z,1.37
2022-08-05T20:08:51.561Z,1.20
2022-08-05T20:13:58.967Z,1.27
2022-08-05T20:19:10.337Z,1.37
2022-08-05T20:24:11.370Z,1.67
2022-08-05T20:29:26.872Z,1.50
2022-08-05T20:34:25.730Z,1.40
2022-08-05T20:39:23.834Z,1.30
2022-08-05T20:44:29.146Z,1.60
2022-08-05T20:49:28.860Z,1.50
2022-08-05T20:54:59.738Z,1.40
2022-08-05T21:00:20.738Z,1.60
2022-08-05T21:05:06.626Z,1.37
2022-08-05T21:10:09.350Z,1.23
2022-08-05T21:15:13.323Z,1.60
2022-08-05T21:20:12.264Z,1.47
2022-08-05T21:25:12.155Z,1.30
2022-08-05T21:30:10.984Z,1.30
2022-08-05T21:35:18.326Z,1.73
2022-08-05T21:40:28.287Z,1.67
2022-08-05T21:45:56.217Z,1.47
2022-08-05T21:50:53.145Z,1.60
2022-08-05T21:56:05.209Z,1.83
2022-08-05T22:01:07.935Z,1.70
2022-08-05T22:06:10.194Z,1.70
2022-08-05T22:11:09.025Z,1.67
2022-08-05T22:16:26.067Z,1.87
2022-08-05T22:21:27.645Z,1.90
2022-08-05T22:26:49.830Z,1.83
2022-08-05T22:31:55.164Z,1.97
2022-08-05T22:36:59.486Z,1.80
2022-08-05T22:42:09.721Z,1.87
2022-08-05T22:47:11.206Z,2.30
2022-08-05T22:52:22.819Z,1.43
2022-08-05T22:57:36.350Z,1.30
2022-08-05T23:02:35.185Z,1.60
2022-08-05T23:07:45.179Z,1.23
2022-08-05T23:12:46.408Z,1.10
2022-08-05T23:18:00.824Z,1.33
2022-08-05T23:23:03.540Z,1.10
2022-08-05T23:28:04.190Z,1.00
2022-08-05T23:33:05.395Z,1.00
2022-08-05T23:38:15.829Z,0.93
2022-08-05T23:43:25.712Z,1.00
2022-08-05T23:48:32.899Z,1.40
2022-08-05T23:53:46.353Z,0.90
2022-08-05T23:58:45.267Z,1.07
